sensor_id;sensor_type;location;lat;lon;timestamp;temperature;humidity
13174;DHT22;6652;48.802;9.190;2023-07-13T00:00:46;21.20;93.80
13174;DHT22;6652;48.802;9.190;2023-07-13T00:03:13;21.10;93.80
13174;DHT22;6652;48.802;9.190;2023-07-13T00:05:40;21.10;94.10
13174;DHT22;6652;48.802;9.190;2023-07-13T00:08:08;21.10;94.10
13174;DHT22;6652;48.802;9.190;2023-07-13T00:10:40;21.00;94.30
13174;DHT22;6652;48.802;9.190;2023-07-13T00:13:07;20.90;94.20
13174;DHT22;6652;48.802;9.190;2023-07-13T00:15:35;20.90;94.30
13174;DHT22;6652;48.802;9.190;2023-07-13T00:18:02;20.80;94.20
13174;DHT22;6652;48.802;9.190;2023-07-13T00:20:28;20.70;94.30
13174;DHT22;6652;48.802;9.190;2023-07-13T00:22:55;20.70;94.20
13174;DHT22;6652;48.802;9.190;2023-07-13T00:25:22;20.70;94.20
13174;DHT22;6652;48.802;9.190;2023-07-13T00:27:55;20.70;94.10
13174;DHT22;6652;48.802;9.190;2023-07-13T00:30:21;20.60;94.10
13174;DHT22;6652;48.802;9.190;2023-07-13T00:32:48;20.60;94.10
13174;DHT22;6652;48.802;9.190;2023-07-13T00:35:15;20.50;94.00
13174;DHT22;6652;48.802;9.190;2023-07-13T00:37:42;20.50;94.00
13174;DHT22;6652;48.802;9.190;2023-07-13T00:40:11;20.50;94.10
13174;DHT22;6652;48.802;9.190;2023-07-13T00:42:39;20.40;94.30
13174;DHT22;6652;48.802;9.190;2023-07-13T00:48:08;20.30;94.20
13174;DHT22;6652;48.802;9.190;2023-07-13T00:50:35;20.30;94.30
13174;DHT22;6652;48.802;9.190;2023-07-13T00:53:03;20.30;94.20
13174;DHT22;6652;48.802;9.190;2023-07-13T00:55:30;20.20;94.10
13174;DHT22;6652;48.802;9.190;2023-07-13T00:57:56;20.20;94.20
13174;DHT22;6652;48.802;9.190;2023-07-13T01:00:25;20.10;94.20
13174;DHT22;6652;48.802;9.190;2023-07-13T01:02:53;20.20;94.50
13174;DHT22;6652;48.802;9.190;2023-07-13T01:05:22;20.10;94.50
13174;DHT22;6652;48.802;9.190;2023-07-13T01:07:50;20.10;94.50
13174;DHT22;6652;48.802;9.190;2023-07-13T01:10:21;20.00;94.70
13174;DHT22;6652;48.802;9.190;2023-07-13T01:12:48;20.00;94.50
13174;DHT22;6652;48.802;9.190;2023-07-13T01:15:36;20.00;94.50
13174;DHT22;6652;48.802;9.190;2023-07-13T01:18:03;19.90;94.60
13174;DHT22;6652;48.802;9.190;2023-07-13T01:20:31;19.90;94.40
13174;DHT22;6652;48.802;9.190;2023-07-13T01:23:04;19.90;94.40
13174;DHT22;6652;48.802;9.190;2023-07-13T01:25:31;19.90;94.30
13174;DHT22;6652;48.802;9.190;2023-07-13T01:27:58;19.80;94.20
13174;DHT22;6652;48.802;9.190;2023-07-13T01:30:25;19.80;94.30
13174;DHT22;6652;48.802;9.190;2023-07-13T01:32:52;19.70;94.10
13174;DHT22;6652;48.802;9.190;2023-07-13T01:35:18;19.70;94.10
13174;DHT22;6652;48.802;9.190;2023-07-13T01:37:45;19.70;94.20
13174;DHT22;6652;48.802;9.190;2023-07-13T01:40:13;19.60;94.20
13174;DHT22;6652;48.802;9.190;2023-07-13T01:42:41;19.50;94.10
13174;DHT22;6652;48.802;9.190;2023-07-13T01:45:08;19.50;94.20
13174;DHT22;6652;48.802;9.190;2023-07-13T01:47:35;19.40;94.60
13174;DHT22;6652;48.802;9.190;2023-07-13T01:50:02;19.40;94.30
13174;DHT22;6652;48.802;9.190;2023-07-13T01:52:29;19.40;94.80
13174;DHT22;6652;48.802;9.190;2023-07-13T01:54:56;19.30;94.40
13174;DHT22;6652;48.802;9.190;2023-07-13T01:57:24;19.30;94.50
13174;DHT22;6652;48.802;9.190;2023-07-13T01:59:51;19.30;94.70
13174;DHT22;6652;48.802;9.190;2023-07-13T02:02:17;19.30;94.80
13174;DHT22;6652;48.802;9.190;2023-07-13T02:04:45;19.30;94.80
13174;DHT22;6652;48.802;9.190;2023-07-13T02:07:12;19.30;95.10
13174;DHT22;6652;48.802;9.190;2023-07-13T02:09:38;19.20;95.10
13174;DHT22;6652;48.802;9.190;2023-07-13T02:12:06;19.60;95.40
13174;DHT22;6652;48.802;9.190;2023-07-13T02:14:34;19.00;95.20
13174;DHT22;6652;48.802;9.190;2023-07-13T02:17:01;19.00;95.60
13174;DHT22;6652;48.802;9.190;2023-07-13T02:19:29;19.00;95.60
13174;DHT22;6652;48.802;9.190;2023-07-13T02:21:56;18.90;95.80
13174;DHT22;6652;48.802;9.190;2023-07-13T02:24:23;18.90;96.00
13174;DHT22;6652;48.802;9.190;2023-07-13T02:26:49;18.90;96.30
13174;DHT22;6652;48.802;9.190;2023-07-13T02:29:16;19.00;96.60
13174;DHT22;6652;48.802;9.190;2023-07-13T02:31:44;18.80;96.70
13174;DHT22;6652;48.802;9.190;2023-07-13T02:34:11;18.80;96.50
13174;DHT22;6652;48.802;9.190;2023-07-13T02:36:38;18.80;96.60
13174;DHT22;6652;48.802;9.190;2023-07-13T02:39:06;18.70;96.70
13174;DHT22;6652;48.802;9.190;2023-07-13T02:41:33;18.70;96.90
13174;DHT22;6652;48.802;9.190;2023-07-13T02:43:59;18.70;97.10
13174;DHT22;6652;48.802;9.190;2023-07-13T02:46:29;18.70;97.60
13174;DHT22;6652;48.802;9.190;2023-07-13T02:48:57;18.60;97.70
13174;DHT22;6652;48.802;9.190;2023-07-13T02:51:24;18.50;98.00
13174;DHT22;6652;48.802;9.190;2023-07-13T02:53:51;18.50;98.00
13174;DHT22;6652;48.802;9.190;2023-07-13T02:56:18;18.50;98.30
13174;DHT22;6652;48.802;9.190;2023-07-13T02:58:45;18.40;98.70
13174;DHT22;6652;48.802;9.190;2023-07-13T03:01:12;18.50;99.10
13174;DHT22;6652;48.802;9.190;2023-07-13T03:03:44;18.30;99.40
13174;DHT22;6652;48.802;9.190;2023-07-13T03:06:14;18.30;99.70
13174;DHT22;6652;48.802;9.190;2023-07-13T03:08:42;18.30;99.90
13174;DHT22;6652;48.802;9.190;2023-07-13T03:11:11;18.30;99.90
13174;DHT22;6652;48.802;9.190;2023-07-13T03:13:39;18.30;99.90
13174;DHT22;6652;48.802;9.190;2023-07-13T03:16:06;18.20;99.90
13174;DHT22;6652;48.802;9.190;2023-07-13T03:18:33;18.20;99.90
13174;DHT22;6652;48.802;9.190;2023-07-13T03:21:00;18.30;99.90
13174;DHT22;6652;48.802;9.190;2023-07-13T03:23:29;18.20;99.90
13174;DHT22;6652;48.802;9.190;2023-07-13T03:26:06;18.30;99.90
13174;DHT22;6652;48.802;9.190;2023-07-13T03:28:34;18.40;99.90
13174;DHT22;6652;48.802;9.190;2023-07-13T03:31:02;18.40;99.90
13174;DHT22;6652;48.802;9.190;2023-07-13T03:33:29;18.50;99.90
13174;DHT22;6652;48.802;9.190;2023-07-13T03:35:56;18.60;99.90
13174;DHT22;6652;48.802;9.190;2023-07-13T03:38:23;18.60;99.90
13174;DHT22;6652;48.802;9.190;2023-07-13T03:40:52;18.70;99.90
13174;DHT22;6652;48.802;9.190;2023-07-13T03:43:18;18.90;99.90
13174;DHT22;6652;48.802;9.190;2023-07-13T03:45:46;18.80;99.90
13174;DHT22;6652;48.802;9.190;2023-07-13T03:48:13;18.90;99.90
13174;DHT22;6652;48.802;9.190;2023-07-13T03:50:40;18.90;99.90
13174;DHT22;6652;48.802;9.190;2023-07-13T03:53:07;19.20;99.90
13174;DHT22;6652;48.802;9.190;2023-07-13T03:55:34;19.00;99.90
13174;DHT22;6652;48.802;9.190;2023-07-13T03:58:29;19.10;99.90
13174;DHT22;6652;48.802;9.190;2023-07-13T04:00:57;19.10;99.90
13174;DHT22;6652;48.802;9.190;2023-07-13T04:03:24;19.20;99.90
13174;DHT22;6652;48.802;9.190;2023-07-13T04:05:54;19.30;99.90
13174;DHT22;6652;48.802;9.190;2023-07-13T04:08:25;19.30;99.90
13174;DHT22;6652;48.802;9.190;2023-07-13T04:10:52;19.30;99.90
13174;DHT22;6652;48.802;9.190;2023-07-13T04:13:20;19.30;99.90
13174;DHT22;6652;48.802;9.190;2023-07-13T04:15:47;19.40;99.90
13174;DHT22;6652;48.802;9.190;2023-07-13T04:18:14;19.40;99.90
13174;DHT22;6652;48.802;9.190;2023-07-13T04:20:41;19.50;99.90
13174;DHT22;6652;48.802;9.190;2023-07-13T04:23:08;19.40;99.90
13174;DHT22;6652;48.802;9.190;2023-07-13T04:25:35;19.40;99.90
13174;DHT22;6652;48.802;9.190;2023-07-13T04:28:03;19.40;99.90
13174;DHT22;6652;48.802;9.190;2023-07-13T04:30:31;19.50;99.90
13174;DHT22;6652;48.802;9.190;2023-07-13T04:32:58;19.50;99.80
13174;DHT22;6652;48.802;9.190;2023-07-13T04:35:25;19.50;99.10
13174;DHT22;6652;48.802;9.190;2023-07-13T04:37:52;19.50;98.80
13174;DHT22;6652;48.802;9.190;2023-07-13T04:40:20;19.50;98.90
13174;DHT22;6652;48.802;9.190;2023-07-13T04:42:47;19.80;98.90
13174;DHT22;6652;48.802;9.190;2023-07-13T04:45:14;19.50;98.50
13174;DHT22;6652;48.802;9.190;2023-07-13T04:47:43;19.50;98.40
13174;DHT22;6652;48.802;9.190;2023-07-13T04:50:12;19.40;98.50
13174;DHT22;6652;48.802;9.190;2023-07-13T04:52:40;19.40;98.20
13174;DHT22;6652;48.802;9.190;2023-07-13T04:55:08;19.40;98.10
13174;DHT22;6652;48.802;9.190;2023-07-13T04:57:35;19.30;98.30
13174;DHT22;6652;48.802;9.190;2023-07-13T05:00:02;19.40;98.70
13174;DHT22;6652;48.802;9.190;2023-07-13T05:02:31;19.40;99.10
13174;DHT22;6652;48.802;9.190;2023-07-13T05:05:00;19.50;99.10
13174;DHT22;6652;48.802;9.190;2023-07-13T05:07:27;19.50;99.20
13174;DHT22;6652;48.802;9.190;2023-07-13T05:09:54;19.60;99.20
13174;DHT22;6652;48.802;9.190;2023-07-13T05:12:21;19.80;99.30
13174;DHT22;6652;48.802;9.190;2023-07-13T05:14:48;20.00;99.60
13174;DHT22;6652;48.802;9.190;2023-07-13T05:17:15;20.30;99.40
13174;DHT22;6652;48.802;9.190;2023-07-13T05:19:42;20.60;99.50
13174;DHT22;6652;48.802;9.190;2023-07-13T05:22:10;20.80;98.90
13174;DHT22;6652;48.802;9.190;2023-07-13T05:24:37;21.00;97.80
13174;DHT22;6652;48.802;9.190;2023-07-13T05:27:05;21.20;97.70
13174;DHT22;6652;48.802;9.190;2023-07-13T05:29:31;21.20;97.10
13174;DHT22;6652;48.802;9.190;2023-07-13T05:31:58;21.30;96.50
13174;DHT22;6652;48.802;9.190;2023-07-13T05:34:25;21.30;96.10
13174;DHT22;6652;48.802;9.190;2023-07-13T05:36:52;21.40;95.60
13174;DHT22;6652;48.802;9.190;2023-07-13T05:39:21;21.30;95.50
13174;DHT22;6652;48.802;9.190;2023-07-13T05:41:48;21.40;95.20
13174;DHT22;6652;48.802;9.190;2023-07-13T05:44:15;21.60;95.70
13174;DHT22;6652;48.802;9.190;2023-07-13T05:46:42;21.60;94.70
13174;DHT22;6652;48.802;9.190;2023-07-13T05:49:09;21.60;94.40
13174;DHT22;6652;48.802;9.190;2023-07-13T05:51:36;21.50;95.10
13174;DHT22;6652;48.802;9.190;2023-07-13T05:54:03;21.50;94.70
13174;DHT22;6652;48.802;9.190;2023-07-13T05:56:34;21.40;94.20
13174;DHT22;6652;48.802;9.190;2023-07-13T05:59:01;21.50;94.40
13174;DHT22;6652;48.802;9.190;2023-07-13T06:01:29;21.50;94.30
13174;DHT22;6652;48.802;9.190;2023-07-13T06:03:56;21.60;94.80
13174;DHT22;6652;48.802;9.190;2023-07-13T06:06:23;21.70;94.60
13174;DHT22;6652;48.802;9.190;2023-07-13T06:08:50;22.00;94.50
13174;DHT22;6652;48.802;9.190;2023-07-13T06:11:19;22.50;94.30
13174;DHT22;6652;48.802;9.190;2023-07-13T06:13:48;23.20;93.20
13174;DHT22;6652;48.802;9.190;2023-07-13T06:16:15;24.20;91.70
13174;DHT22;6652;48.802;9.190;2023-07-13T06:18:42;25.10;90.90
13174;DHT22;6652;48.802;9.190;2023-07-13T06:21:11;25.90;87.70
13174;DHT22;6652;48.802;9.190;2023-07-13T06:23:38;26.90;84.10
13174;DHT22;6652;48.802;9.190;2023-07-13T06:26:06;27.50;81.60
13174;DHT22;6652;48.802;9.190;2023-07-13T06:28:33;28.10;77.70
13174;DHT22;6652;48.802;9.190;2023-07-13T06:31:01;28.50;75.30
13174;DHT22;6652;48.802;9.190;2023-07-13T06:33:28;28.10;71.80
13174;DHT22;6652;48.802;9.190;2023-07-13T06:35:55;27.50;72.20
13174;DHT22;6652;48.802;9.190;2023-07-13T06:38:22;27.00;74.10
13174;DHT22;6652;48.802;9.190;2023-07-13T06:40:49;27.20;75.50
13174;DHT22;6652;48.802;9.190;2023-07-13T06:43:16;27.70;73.90
13174;DHT22;6652;48.802;9.190;2023-07-13T06:45:45;28.90;72.70
13174;DHT22;6652;48.802;9.190;2023-07-13T06:48:14;29.60;70.30
13174;DHT22;6652;48.802;9.190;2023-07-13T06:50:42;30.30;66.90
13174;DHT22;6652;48.802;9.190;2023-07-13T06:53:12;31.00;65.10
13174;DHT22;6652;48.802;9.190;2023-07-13T06:55:39;31.60;64.00
13174;DHT22;6652;48.802;9.190;2023-07-13T06:58:06;32.20;60.90
13174;DHT22;6652;48.802;9.190;2023-07-13T07:00:33;31.90;60.30
13174;DHT22;6652;48.802;9.190;2023-07-13T07:03:00;31.60;59.00
13174;DHT22;6652;48.802;9.190;2023-07-13T07:05:28;31.40;59.70
13174;DHT22;6652;48.802;9.190;2023-07-13T07:07:55;31.20;59.60
13174;DHT22;6652;48.802;9.190;2023-07-13T07:10:22;31.40;59.70
13174;DHT22;6652;48.802;9.190;2023-07-13T07:12:49;31.50;58.60
13174;DHT22;6652;48.802;9.190;2023-07-13T07:15:16;32.10;57.60
13174;DHT22;6652;48.802;9.190;2023-07-13T07:17:43;32.70;56.30
13174;DHT22;6652;48.802;9.190;2023-07-13T07:20:11;32.50;53.90
13174;DHT22;6652;48.802;9.190;2023-07-13T07:22:39;32.50;54.10
13174;DHT22;6652;48.802;9.190;2023-07-13T07:25:06;32.90;53.80
13174;DHT22;6652;48.802;9.190;2023-07-13T07:27:33;33.30;52.80
13174;DHT22;6652;48.802;9.190;2023-07-13T07:30:00;33.90;53.20
13174;DHT22;6652;48.802;9.190;2023-07-13T07:32:29;34.30;51.00
13174;DHT22;6652;48.802;9.190;2023-07-13T07:34:56;34.70;49.40
13174;DHT22;6652;48.802;9.190;2023-07-13T07:37:23;35.10;49.10
13174;DHT22;6652;48.802;9.190;2023-07-13T07:39:51;35.30;47.70
13174;DHT22;6652;48.802;9.190;2023-07-13T07:42:18;35.50;48.20
13174;DHT22;6652;48.802;9.190;2023-07-13T07:44:44;35.70;46.10
13174;DHT22;6652;48.802;9.190;2023-07-13T07:47:11;35.80;44.50
13174;DHT22;6652;48.802;9.190;2023-07-13T07:49:38;35.60;44.20
13174;DHT22;6652;48.802;9.190;2023-07-13T07:52:06;35.80;45.10
13174;DHT22;6652;48.802;9.190;2023-07-13T07:54:33;36.10;44.10
13174;DHT22;6652;48.802;9.190;2023-07-13T07:57:01;36.20;43.30
13174;DHT22;6652;48.802;9.190;2023-07-13T07:59:28;36.40;43.70
13174;DHT22;6652;48.802;9.190;2023-07-13T08:01:55;36.40;43.80
13174;DHT22;6652;48.802;9.190;2023-07-13T08:04:22;36.50;42.50
13174;DHT22;6652;48.802;9.190;2023-07-13T08:06:49;36.20;42.10
13174;DHT22;6652;48.802;9.190;2023-07-13T08:09:16;36.30;42.20
13174;DHT22;6652;48.802;9.190;2023-07-13T08:11:43;36.60;42.40
13174;DHT22;6652;48.802;9.190;2023-07-13T08:14:11;36.90;41.70
13174;DHT22;6652;48.802;9.190;2023-07-13T08:16:37;37.00;41.40
13174;DHT22;6652;48.802;9.190;2023-07-13T08:19:05;37.00;41.80
13174;DHT22;6652;48.802;9.190;2023-07-13T08:21:31;37.10;40.70
13174;DHT22;6652;48.802;9.190;2023-07-13T08:23:58;37.10;40.00
13174;DHT22;6652;48.802;9.190;2023-07-13T08:26:25;37.50;39.60
13174;DHT22;6652;48.802;9.190;2023-07-13T08:28:52;37.50;40.20
13174;DHT22;6652;48.802;9.190;2023-07-13T08:31:20;37.40;40.30
13174;DHT22;6652;48.802;9.190;2023-07-13T08:33:47;37.30;39.50
13174;DHT22;6652;48.802;9.190;2023-07-13T08:36:13;37.20;39.40
13174;DHT22;6652;48.802;9.190;2023-07-13T08:38:40;37.20;40.90
13174;DHT22;6652;48.802;9.190;2023-07-13T08:41:12;37.50;40.90
13174;DHT22;6652;48.802;9.190;2023-07-13T08:43:39;38.10;40.50
13174;DHT22;6652;48.802;9.190;2023-07-13T08:46:11;38.10;39.30
13174;DHT22;6652;48.802;9.190;2023-07-13T08:48:45;37.60;39.00
13174;DHT22;6652;48.802;9.190;2023-07-13T08:51:24;37.70;39.30
13174;DHT22;6652;48.802;9.190;2023-07-13T08:53:57;37.60;38.70
13174;DHT22;6652;48.802;9.190;2023-07-13T08:56:27;37.30;39.40
13174;DHT22;6652;48.802;9.190;2023-07-13T08:58:57;36.60;39.90
13174;DHT22;6652;48.802;9.190;2023-07-13T09:01:30;36.80;40.90
13174;DHT22;6652;48.802;9.190;2023-07-13T09:04:04;37.30;40.80
13174;DHT22;6652;48.802;9.190;2023-07-13T09:06:40;37.80;39.70
13174;DHT22;6652;48.802;9.190;2023-07-13T09:09:17;38.20;39.30
13174;DHT22;6652;48.802;9.190;2023-07-13T09:11:52;38.30;39.00
13174;DHT22;6652;48.802;9.190;2023-07-13T09:14:36;38.40;39.20
13174;DHT22;6652;48.802;9.190;2023-07-13T09:17:05;38.70;38.10
13174;DHT22;6652;48.802;9.190;2023-07-13T09:19:38;38.70;38.10
13174;DHT22;6652;48.802;9.190;2023-07-13T09:22:24;38.40;38.00
13174;DHT22;6652;48.802;9.190;2023-07-13T09:24:57;38.00;38.40
13174;DHT22;6652;48.802;9.190;2023-07-13T09:27:29;38.20;38.10
13174;DHT22;6652;48.802;9.190;2023-07-13T09:30:04;38.10;37.50
13174;DHT22;6652;48.802;9.190;2023-07-13T09:32:38;37.90;38.30
13174;DHT22;6652;48.802;9.190;2023-07-13T09:35:10;38.00;38.70
13174;DHT22;6652;48.802;9.190;2023-07-13T09:37:39;38.40;38.30
13174;DHT22;6652;48.802;9.190;2023-07-13T09:40:17;38.70;37.10
13174;DHT22;6652;48.802;9.190;2023-07-13T09:42:47;39.10;37.20
13174;DHT22;6652;48.802;9.190;2023-07-13T09:45:17;39.10;36.50
13174;DHT22;6652;48.802;9.190;2023-07-13T09:47:58;38.90;36.40
13174;DHT22;6652;48.802;9.190;2023-07-13T09:50:25;37.70;36.50
13174;DHT22;6652;48.802;9.190;2023-07-13T09:52:56;37.40;38.10
13174;DHT22;6652;48.802;9.190;2023-07-13T09:55:26;37.60;38.20
13174;DHT22;6652;48.802;9.190;2023-07-13T09:57:53;37.80;38.20
13174;DHT22;6652;48.802;9.190;2023-07-13T10:00:25;36.60;37.00
13174;DHT22;6652;48.802;9.190;2023-07-13T10:02:59;34.80;39.10
13174;DHT22;6652;48.802;9.190;2023-07-13T10:05:26;33.60;41.30
13174;DHT22;6652;48.802;9.190;2023-07-13T10:07:57;32.80;41.80
13174;DHT22;6652;48.802;9.190;2023-07-13T10:10:23;32.60;43.80
13174;DHT22;6652;48.802;9.190;2023-07-13T10:12:51;32.90;44.20
13174;DHT22;6652;48.802;9.190;2023-07-13T10:15:20;33.30;43.70
13174;DHT22;6652;48.802;9.190;2023-07-13T10:17:48;32.70;43.10
13174;DHT22;6652;48.802;9.190;2023-07-13T10:20:16;32.90;44.20
13174;DHT22;6652;48.802;9.190;2023-07-13T10:22:47;33.40;43.40
13174;DHT22;6652;48.802;9.190;2023-07-13T10:25:20;33.00;43.50
13174;DHT22;6652;48.802;9.190;2023-07-13T10:27:50;32.70;44.50
13174;DHT22;6652;48.802;9.190;2023-07-13T10:30:21;32.80;44.10
13174;DHT22;6652;48.802;9.190;2023-07-13T10:32:51;33.20;44.80
13174;DHT22;6652;48.802;9.190;2023-07-13T10:35:20;33.20;43.30
13174;DHT22;6652;48.802;9.190;2023-07-13T10:37:51;33.40;44.30
13174;DHT22;6652;48.802;9.190;2023-07-13T10:40:23;33.60;43.00
13174;DHT22;6652;48.802;9.190;2023-07-13T10:42:51;33.40;42.50
13174;DHT22;6652;48.802;9.190;2023-07-13T10:45:22;33.00;43.00
13174;DHT22;6652;48.802;9.190;2023-07-13T10:47:51;32.90;44.00
13174;DHT22;6652;48.802;9.190;2023-07-13T10:50:23;32.80;45.00
13174;DHT22;6652;48.802;9.190;2023-07-13T10:52:51;32.40;44.00
13174;DHT22;6652;48.802;9.190;2023-07-13T10:55:38;32.00;45.30
13174;DHT22;6652;48.802;9.190;2023-07-13T10:58:14;31.50;46.00
13174;DHT22;6652;48.802;9.190;2023-07-13T11:00:47;31.20;46.20
13174;DHT22;6652;48.802;9.190;2023-07-13T11:03:17;31.20;46.90
13174;DHT22;6652;48.802;9.190;2023-07-13T11:05:48;31.30;47.00
13174;DHT22;6652;48.802;9.190;2023-07-13T11:08:20;31.40;45.60
13174;DHT22;6652;48.802;9.190;2023-07-13T11:10:52;31.30;46.90
13174;DHT22;6652;48.802;9.190;2023-07-13T11:16:49;30.90;46.20
13174;DHT22;6652;48.802;9.190;2023-07-13T11:19:28;30.70;47.20
13174;DHT22;6652;48.802;9.190;2023-07-13T11:22:09;30.70;47.80
13174;DHT22;6652;48.802;9.190;2023-07-13T11:24:57;30.50;48.30
13174;DHT22;6652;48.802;9.190;2023-07-13T11:27:41;30.60;47.90
13174;DHT22;6652;48.802;9.190;2023-07-13T11:30:22;30.80;47.80
13174;DHT22;6652;48.802;9.190;2023-07-13T11:32:51;30.70;46.10
13174;DHT22;6652;48.802;9.190;2023-07-13T11:35:33;30.40;46.40
13174;DHT22;6652;48.802;9.190;2023-07-13T11:38:00;30.30;46.80
13174;DHT22;6652;48.802;9.190;2023-07-13T11:40:29;30.10;47.50
13174;DHT22;6652;48.802;9.190;2023-07-13T11:43:00;30.00;47.40
13174;DHT22;6652;48.802;9.190;2023-07-13T11:45:27;30.10;48.40
13174;DHT22;6652;48.802;9.190;2023-07-13T11:47:54;30.00;48.30
13174;DHT22;6652;48.802;9.190;2023-07-13T11:50:24;29.90;48.20
13174;DHT22;6652;48.802;9.190;2023-07-13T11:52:52;30.00;49.10
13174;DHT22;6652;48.802;9.190;2023-07-13T11:55:22;30.50;49.30
13174;DHT22;6652;48.802;9.190;2023-07-13T11:57:53;30.30;47.50
13174;DHT22;6652;48.802;9.190;2023-07-13T12:00:25;30.30;47.90
13174;DHT22;6652;48.802;9.190;2023-07-13T12:02:55;30.30;47.50
13174;DHT22;6652;48.802;9.190;2023-07-13T12:05:23;30.00;47.10
13174;DHT22;6652;48.802;9.190;2023-07-13T12:07:51;29.70;47.20
13174;DHT22;6652;48.802;9.190;2023-07-13T12:10:22;29.30;47.60
13174;DHT22;6652;48.802;9.190;2023-07-13T12:12:52;29.10;48.50
13174;DHT22;6652;48.802;9.190;2023-07-13T12:15:20;29.10;48.80
13174;DHT22;6652;48.802;9.190;2023-07-13T12:17:49;29.10;48.50
13174;DHT22;6652;48.802;9.190;2023-07-13T12:20:20;29.00;48.80
13174;DHT22;6652;48.802;9.190;2023-07-13T12:22:49;29.30;49.00
13174;DHT22;6652;48.802;9.190;2023-07-13T12:25:17;29.50;49.10
13174;DHT22;6652;48.802;9.190;2023-07-13T12:27:47;29.60;48.30
13174;DHT22;6652;48.802;9.190;2023-07-13T12:30:27;29.60;49.80
13174;DHT22;6652;48.802;9.190;2023-07-13T12:33:08;30.20;48.60
13174;DHT22;6652;48.802;9.190;2023-07-13T12:35:41;30.30;47.50
13174;DHT22;6652;48.802;9.190;2023-07-13T12:38:09;30.20;46.80
13174;DHT22;6652;48.802;9.190;2023-07-13T12:40:37;30.30;47.80
13174;DHT22;6652;48.802;9.190;2023-07-13T12:43:09;30.30;48.70
13174;DHT22;6652;48.802;9.190;2023-07-13T12:45:37;30.60;48.60
13174;DHT22;6652;48.802;9.190;2023-07-13T12:48:10;31.00;47.60
13174;DHT22;6652;48.802;9.190;2023-07-13T12:50:42;31.10;47.50
13174;DHT22;6652;48.802;9.190;2023-07-13T12:53:14;30.80;46.00
13174;DHT22;6652;48.802;9.190;2023-07-13T12:55:43;30.40;46.50
13174;DHT22;6652;48.802;9.190;2023-07-13T12:58:18;30.20;46.70
13174;DHT22;6652;48.802;9.190;2023-07-13T13:00:49;30.10;47.60
13174;DHT22;6652;48.802;9.190;2023-07-13T13:03:23;29.90;47.40
13174;DHT22;6652;48.802;9.190;2023-07-13T13:05:58;29.90;47.40
13174;DHT22;6652;48.802;9.190;2023-07-13T13:08:29;29.90;47.10
13174;DHT22;6652;48.802;9.190;2023-07-13T13:10:56;29.90;47.70
13174;DHT22;6652;48.802;9.190;2023-07-13T13:13:23;29.80;47.40
13174;DHT22;6652;48.802;9.190;2023-07-13T13:15:49;29.90;47.50
13174;DHT22;6652;48.802;9.190;2023-07-13T13:18:18;30.00;47.30
13174;DHT22;6652;48.802;9.190;2023-07-13T13:20:46;30.10;47.50
13174;DHT22;6652;48.802;9.190;2023-07-13T13:23:15;29.90;47.50
13174;DHT22;6652;48.802;9.190;2023-07-13T13:25:43;29.70;47.10
13174;DHT22;6652;48.802;9.190;2023-07-13T13:28:15;29.60;47.80
13174;DHT22;6652;48.802;9.190;2023-07-13T13:30:43;29.70;47.30
13174;DHT22;6652;48.802;9.190;2023-07-13T13:33:14;29.80;47.80
13174;DHT22;6652;48.802;9.190;2023-07-13T13:35:41;29.80;47.20
13174;DHT22;6652;48.802;9.190;2023-07-13T13:38:13;29.90;48.70
13174;DHT22;6652;48.802;9.190;2023-07-13T13:40:41;29.90;46.70
13174;DHT22;6652;48.802;9.190;2023-07-13T13:43:15;29.90;47.10
13174;DHT22;6652;48.802;9.190;2023-07-13T13:45:43;29.70;47.00
13174;DHT22;6652;48.802;9.190;2023-07-13T13:48:15;29.40;47.30
13174;DHT22;6652;48.802;9.190;2023-07-13T13:50:42;29.20;47.30
13174;DHT22;6652;48.802;9.190;2023-07-13T13:53:10;29.30;47.40
13174;DHT22;6652;48.802;9.190;2023-07-13T13:55:39;29.20;47.50
13174;DHT22;6652;48.802;9.190;2023-07-13T13:58:07;28.80;47.50
13174;DHT22;6652;48.802;9.190;2023-07-13T14:00:34;28.70;48.00
13174;DHT22;6652;48.802;9.190;2023-07-13T14:03:02;28.60;47.90
13174;DHT22;6652;48.802;9.190;2023-07-13T14:05:28;28.60;48.10
13174;DHT22;6652;48.802;9.190;2023-07-13T14:07:56;28.60;47.90
13174;DHT22;6652;48.802;9.190;2023-07-13T14:10:23;28.80;49.20
13174;DHT22;6652;48.802;9.190;2023-07-13T14:12:54;29.10;48.70
13174;DHT22;6652;48.802;9.190;2023-07-13T14:15:24;28.90;48.70
13174;DHT22;6652;48.802;9.190;2023-07-13T14:17:51;29.10;48.30
13174;DHT22;6652;48.802;9.190;2023-07-13T14:20:19;29.20;48.20
13174;DHT22;6652;48.802;9.190;2023-07-13T14:22:46;29.30;48.30
13174;DHT22;6652;48.802;9.190;2023-07-13T14:25:14;29.20;48.10
13174;DHT22;6652;48.802;9.190;2023-07-13T14:27:43;29.20;48.50
13174;DHT22;6652;48.802;9.190;2023-07-13T14:30:16;29.40;48.00
13174;DHT22;6652;48.802;9.190;2023-07-13T14:32:43;29.50;48.00
13174;DHT22;6652;48.802;9.190;2023-07-13T14:35:11;29.50;47.20
13174;DHT22;6652;48.802;9.190;2023-07-13T14:37:39;29.50;47.20
13174;DHT22;6652;48.802;9.190;2023-07-13T14:40:13;29.50;45.80
13174;DHT22;6652;48.802;9.190;2023-07-13T14:42:39;29.30;46.00
13174;DHT22;6652;48.802;9.190;2023-07-13T14:45:12;29.20;46.60
13174;DHT22;6652;48.802;9.190;2023-07-13T14:47:41;29.10;47.50
13174;DHT22;6652;48.802;9.190;2023-07-13T14:50:13;29.30;47.70
13174;DHT22;6652;48.802;9.190;2023-07-13T14:52:41;29.50;47.10
13174;DHT22;6652;48.802;9.190;2023-07-13T14:55:11;29.50;47.40
13174;DHT22;6652;48.802;9.190;2023-07-13T14:57:38;29.50;47.80
13174;DHT22;6652;48.802;9.190;2023-07-13T15:00:09;29.40;47.80
13174;DHT22;6652;48.802;9.190;2023-07-13T15:02:40;29.50;48.10
13174;DHT22;6652;48.802;9.190;2023-07-13T15:05:14;29.50;47.90
13174;DHT22;6652;48.802;9.190;2023-07-13T15:07:41;29.40;47.80
13174;DHT22;6652;48.802;9.190;2023-07-13T15:10:15;29.30;48.30
13174;DHT22;6652;48.802;9.190;2023-07-13T15:12:42;29.30;48.80
13174;DHT22;6652;48.802;9.190;2023-07-13T15:15:09;29.20;48.50
13174;DHT22;6652;48.802;9.190;2023-07-13T15:17:38;29.10;48.70
13174;DHT22;6652;48.802;9.190;2023-07-13T15:20:19;29.00;48.70
13174;DHT22;6652;48.802;9.190;2023-07-13T15:22:48;29.10;49.20
13174;DHT22;6652;48.802;9.190;2023-07-13T15:25:18;29.20;49.30
13174;DHT22;6652;48.802;9.190;2023-07-13T15:27:45;29.10;48.40
13174;DHT22;6652;48.802;9.190;2023-07-13T15:30:13;29.00;48.50
13174;DHT22;6652;48.802;9.190;2023-07-13T15:32:42;28.80;48.70
13174;DHT22;6652;48.802;9.190;2023-07-13T15:35:15;28.70;48.90
13174;DHT22;6652;48.802;9.190;2023-07-13T15:37:43;28.60;48.60
13174;DHT22;6652;48.802;9.190;2023-07-13T15:40:11;28.50;48.70
13174;DHT22;6652;48.802;9.190;2023-07-13T15:42:39;28.50;49.10
13174;DHT22;6652;48.802;9.190;2023-07-13T15:45:15;28.40;48.80
13174;DHT22;6652;48.802;9.190;2023-07-13T15:47:42;28.50;49.20
13174;DHT22;6652;48.802;9.190;2023-07-13T15:50:14;28.40;49.30
13174;DHT22;6652;48.802;9.190;2023-07-13T15:52:42;28.40;49.10
13174;DHT22;6652;48.802;9.190;2023-07-13T15:55:11;28.40;49.50
13174;DHT22;6652;48.802;9.190;2023-07-13T15:57:38;28.40;49.30
13174;DHT22;6652;48.802;9.190;2023-07-13T16:00:18;28.40;49.10
13174;DHT22;6652;48.802;9.190;2023-07-13T16:02:47;28.30;48.80